Time;durP1;ratioP1;P1;durP2;ratioP2;P2;SDS_P1;SDS_P2;PMS_P1;PMS_P2;Temp;Humidity;BMP_temperature;BMP_pressure;BME280_temperature;BME280_humidity;BME280_pressure;Samples;Min_cycle;Max_cycle;Signal;HPM_P1;HPM_P2
2022/04/06 00:01:02;;;;;;;6.22;3.60;;;;;;;;;;5011546;28;20054;-80
2022/04/06 00:03:29;;;;;;;5.38;3.58;;;;;;;;;;5007276;28;20496;-80
2022/04/06 00:05:56;;;;;;;6.05;3.70;;;;;;;;;;4997915;28;20397;-80
2022/04/06 00:08:22;;;;;;;6.35;3.45;;;;;;;;;;4996614;28;20148;-80
2022/04/06 00:10:49;;;;;;;7.32;3.75;;;;;;;;;;4996894;28;20058;-82
2022/04/06 00:13:16;;;;;;;6.47;3.55;;;;;;;;;;4997870;28;20046;-81
2022/04/06 00:15:44;;;;;;;5.95;3.55;;;;;;;;;;4998009;28;20050;-81
2022/04/06 00:18:11;;;;;;;6.22;3.90;;;;;;;;;;4997869;28;20057;-81
2022/04/06 00:20:38;;;;;;;5.90;3.70;;;;;;;;;;5002690;28;20050;-81
2022/04/06 00:23:05;;;;;;;5.82;3.47;;;;;;;;;;5002567;28;20050;-82
2022/04/06 00:25:32;;;;;;;6.50;3.40;;;;;;;;;;4996467;28;20046;-81
2022/04/06 00:27:59;;;;;;;6.85;4.00;;;;;;;;;;4996552;28;20046;-82
2022/04/06 00:30:26;;;;;;;5.85;3.35;;;;;;;;;;4996271;28;20046;-81
2022/04/06 00:32:54;;;;;;;7.85;4.03;;;;;;;;;;4996306;28;20141;-81
2022/04/06 00:35:31;;;;;;;7.85;3.80;;;;;;;;;;4998581;28;20047;-81
2022/04/06 00:37:58;;;;;;;6.30;3.63;;;;;;;;;;4996619;28;20050;-82
2022/04/06 00:40:25;;;;;;;6.97;3.67;;;;;;;;;;4996434;28;20607;-81
2022/04/06 00:42:53;;;;;;;6.03;3.42;;;;;;;;;;4996671;28;20042;-81
2022/04/06 00:45:20;;;;;;;6.78;3.58;;;;;;;;;;4996667;28;20050;-81
2022/04/06 00:47:47;;;;;;;7.57;3.72;;;;;;;;;;5008417;28;20050;-80
2022/04/06 00:50:15;;;;;;;6.97;4.13;;;;;;;;;;5010886;28;20065;-81
2022/04/06 00:52:42;;;;;;;8.45;4.82;;;;;;;;;;5010016;28;20337;-80
2022/04/06 00:55:12;;;;;;;7.72;4.70;;;;;;;;;;5006336;28;20077;-81
2022/04/06 00:57:39;;;;;;;7.93;4.97;;;;;;;;;;4996302;28;20043;-81
2022/04/06 01:00:10;;;;;;;6.75;4.53;;;;;;;;;;4995933;28;20097;-81
2022/04/06 01:02:36;;;;;;;6.93;4.30;;;;;;;;;;4996274;28;20116;-81
2022/04/06 01:05:04;;;;;;;6.57;3.95;;;;;;;;;;4995923;28;20054;-81
2022/04/06 01:07:33;;;;;;;6.22;4.15;;;;;;;;;;4995573;28;20057;-81
2022/04/06 01:10:00;;;;;;;6.80;4.07;;;;;;;;;;4995321;28;20512;-81
2022/04/06 01:12:29;;;;;;;7.07;4.15;;;;;;;;;;4995596;28;20054;-81
2022/04/06 01:14:56;;;;;;;7.03;3.60;;;;;;;;;;4996556;28;20050;-83
2022/04/06 01:17:23;;;;;;;6.55;3.97;;;;;;;;;;4995884;28;20672;-83
2022/04/06 01:19:51;;;;;;;7.05;4.45;;;;;;;;;;5014926;23;20095;-81
2022/04/06 01:22:20;;;;;;;7.95;4.25;;;;;;;;;;4983852;28;20055;-79
2022/04/06 01:24:49;;;;;;;7.45;4.32;;;;;;;;;;4981990;28;20054;-81
2022/04/06 01:27:16;;;;;;;7.38;4.05;;;;;;;;;;4980466;28;20054;-81
2022/04/06 01:29:44;;;;;;;7.60;4.57;;;;;;;;;;4980255;28;20573;-79
2022/04/06 01:32:12;;;;;;;7.82;4.65;;;;;;;;;;4977552;28;20109;-79
2022/04/06 01:34:40;;;;;;;6.88;4.30;;;;;;;;;;4980978;28;20501;-79
2022/04/06 01:37:07;;;;;;;6.80;4.35;;;;;;;;;;4980729;28;20050;-79
2022/04/06 01:39:37;;;;;;;6.88;4.57;;;;;;;;;;4981302;28;20066;-78
2022/04/06 01:42:05;;;;;;;7.78;4.55;;;;;;;;;;4983707;28;20051;-79
2022/04/06 01:44:32;;;;;;;8.15;4.80;;;;;;;;;;4982998;28;20054;-78
2022/04/06 01:47:00;;;;;;;8.82;4.88;;;;;;;;;;4982230;28;20062;-79
2022/04/06 01:52:15;;;;;;;8.63;5.20;;;;;;;;;;4984777;28;20133;-79
2022/04/06 01:54:45;;;;;;;7.50;4.72;;;;;;;;;;4994645;28;20043;-79
2022/04/06 01:57:13;;;;;;;9.25;5.55;;;;;;;;;;5001024;28;20062;-78
2022/04/06 01:59:41;;;;;;;7.50;4.68;;;;;;;;;;5000984;28;20042;-78
2022/04/06 02:02:09;;;;;;;8.50;4.60;;;;;;;;;;4999941;28;20061;-79
2022/04/06 02:04:37;;;;;;;9.30;5.28;;;;;;;;;;4999165;28;20062;-78
2022/04/06 02:07:04;;;;;;;8.63;4.80;;;;;;;;;;4996632;28;20051;-78
2022/04/06 02:09:31;;;;;;;9.43;5.40;;;;;;;;;;4997812;28;20054;-78
2022/04/06 02:12:00;;;;;;;8.55;5.57;;;;;;;;;;4993967;28;20055;-79
2022/04/06 02:14:49;;;;;;;8.63;5.13;;;;;;;;;;4994854;28;20058;-78
2022/04/06 02:17:17;;;;;;;7.68;4.95;;;;;;;;;;4998645;28;20055;-78
2022/04/06 02:19:44;;;;;;;8.25;5.55;;;;;;;;;;4998812;28;20051;-78
2022/04/06 02:22:10;;;;;;;9.63;5.53;;;;;;;;;;4999346;28;20030;-78
2022/04/06 02:24:38;;;;;;;9.55;5.75;;;;;;;;;;5001278;28;20034;-78
2022/04/06 02:27:08;;;;;;;11.90;5.93;;;;;;;;;;5000158;28;20035;-78
2022/04/06 02:29:35;;;;;;;11.18;5.97;;;;;;;;;;4990933;28;20490;-79
2022/04/06 02:32:02;;;;;;;8.70;5.65;;;;;;;;;;4990176;28;20050;-78
2022/04/06 02:34:29;;;;;;;8.75;5.13;;;;;;;;;;4990215;28;20043;-79
2022/04/06 02:36:56;;;;;;;9.57;5.47;;;;;;;;;;4987696;28;20496;-79
2022/04/06 02:39:22;;;;;;;8.63;5.05;;;;;;;;;;4989332;28;20055;-79
2022/04/06 02:41:49;;;;;;;8.35;5.65;;;;;;;;;;4994810;28;20241;-79
2022/04/06 02:44:18;;;;;;;8.45;5.25;;;;;;;;;;4988450;28;20047;-79
2022/04/06 02:46:45;;;;;;;8.70;5.50;;;;;;;;;;4980055;28;20116;-79
2022/04/06 02:49:12;;;;;;;9.50;6.07;;;;;;;;;;4978138;28;20046;-78
2022/04/06 02:51:39;;;;;;;11.02;5.80;;;;;;;;;;4977821;28;20561;-78
2022/04/06 02:54:06;;;;;;;11.35;5.82;;;;;;;;;;4978153;28;20054;-78
2022/04/06 02:56:33;;;;;;;9.60;5.53;;;;;;;;;;4977593;28;20572;-78
2022/04/06 02:59:01;;;;;;;9.55;5.15;;;;;;;;;;4978338;28;20058;-79
2022/04/06 03:01:29;;;;;;;9.25;5.60;;;;;;;;;;4979445;28;20043;-78
2022/04/06 03:03:56;;;;;;;9.90;5.50;;;;;;;;;;4981016;28;20079;-80
2022/04/06 03:06:23;;;;;;;9.55;6.25;;;;;;;;;;4981886;28;20043;-79
2022/04/06 03:08:50;;;;;;;9.38;5.50;;;;;;;;;;4981303;28;20121;-80
2022/04/06 03:11:16;;;;;;;9.45;5.70;;;;;;;;;;4982157;28;20046;-79
2022/04/06 03:13:43;;;;;;;8.20;5.00;;;;;;;;;;4981357;28;20101;-79
2022/04/06 03:16:10;;;;;;;10.48;5.45;;;;;;;;;;4981514;28;20125;-79
2022/04/06 03:18:38;;;;;;;9.93;5.53;;;;;;;;;;4981649;28;20058;-79
2022/04/06 03:21:05;;;;;;;9.30;6.15;;;;;;;;;;4981026;28;20054;-79
2022/04/06 03:23:32;;;;;;;8.35;5.07;;;;;;;;;;4982001;28;20051;-80
2022/04/06 03:25:58;;;;;;;7.72;5.18;;;;;;;;;;4981921;28;20121;-79
2022/04/06 03:28:25;;;;;;;8.75;5.53;;;;;;;;;;4984006;28;20047;-79
2022/04/06 03:30:52;;;;;;;9.43;5.13;;;;;;;;;;4982433;28;20050;-79
2022/04/06 03:33:19;;;;;;;9.77;5.60;;;;;;;;;;4983522;28;20394;-79
2022/04/06 03:35:47;;;;;;;8.45;5.20;;;;;;;;;;4983727;28;20059;-78
2022/04/06 03:38:14;;;;;;;8.70;4.90;;;;;;;;;;4984049;28;20085;-78
2022/04/06 03:40:41;;;;;;;9.68;5.18;;;;;;;;;;4983148;28;20464;-79
2022/04/06 03:43:08;;;;;;;9.00;5.28;;;;;;;;;;4983409;28;20070;-80
2022/04/06 03:45:35;;;;;;;9.40;5.13;;;;;;;;;;4993247;28;20046;-79
2022/04/06 03:48:02;;;;;;;8.50;5.30;;;;;;;;;;5002768;28;20047;-79
2022/04/06 03:50:28;;;;;;;8.38;4.30;;;;;;;;;;5002723;28;20517;-78
2022/04/06 03:52:56;;;;;;;9.35;5.05;;;;;;;;;;5002592;28;20489;-79
2022/04/06 03:55:23;;;;;;;8.48;4.90;;;;;;;;;;5002343;28;20050;-79
2022/04/06 03:57:51;;;;;;;10.10;5.95;;;;;;;;;;5002587;28;20493;-79
2022/04/06 04:00:18;;;;;;;10.45;5.53;;;;;;;;;;5001081;28;20158;-78
2022/04/06 04:02:45;;;;;;;7.78;4.63;;;;;;;;;;5001211;28;20050;-78
2022/04/06 04:05:13;;;;;;;9.32;5.53;;;;;;;;;;5002678;28;20046;-78
2022/04/06 04:07:40;;;;;;;9.75;6.32;;;;;;;;;;5004844;28;20046;-79
2022/04/06 04:10:10;;;;;;;9.32;5.32;;;;;;;;;;5003920;28;20073;-80
2022/04/06 04:12:38;;;;;;;8.95;5.53;;;;;;;;;;5002587;28;20054;-79
2022/04/06 04:15:06;;;;;;;8.32;5.28;;;;;;;;;;5001476;28;20506;-79
2022/04/06 04:17:33;;;;;;;8.85;5.18;;;;;;;;;;5001480;28;20054;-80
2022/04/06 04:20:00;;;;;;;8.45;5.00;;;;;;;;;;5000616;28;20050;-79
2022/04/06 04:22:26;;;;;;;8.60;5.00;;;;;;;;;;5001128;28;20555;-79
2022/04/06 04:24:53;;;;;;;7.68;4.57;;;;;;;;;;4999178;28;20054;-79
2022/04/06 04:27:22;;;;;;;8.15;4.90;;;;;;;;;;4999160;28;20137;-80
2022/04/06 04:29:49;;;;;;;7.13;4.68;;;;;;;;;;4999011;28;20050;-79
2022/04/06 04:32:16;;;;;;;6.78;4.45;;;;;;;;;;5000265;28;20046;-80
2022/04/06 04:34:43;;;;;;;7.10;4.18;;;;;;;;;;5001416;28;20081;-80
2022/04/06 04:37:10;;;;;;;6.82;4.15;;;;;;;;;;5001120;28;20046;-79
2022/04/06 04:39:37;;;;;;;6.55;4.28;;;;;;;;;;4997403;28;20097;-79
2022/04/06 04:42:04;;;;;;;6.40;3.67;;;;;;;;;;4998513;28;20051;-80
2022/04/06 04:44:32;;;;;;;7.50;4.05;;;;;;;;;;5002348;28;20050;-79
2022/04/06 04:47:00;;;;;;;7.78;4.10;;;;;;;;;;5006132;28;20453;-79
2022/04/06 04:49:26;;;;;;;7.63;4.68;;;;;;;;;;5005347;28;20034;-80
2022/04/06 04:51:53;;;;;;;8.35;4.93;;;;;;;;;;5001320;28;20082;-80
2022/04/06 04:54:24;;;;;;;9.32;4.53;;;;;;;;;;5002646;28;20054;-79
2022/04/06 04:56:51;;;;;;;9.90;6.40;;;;;;;;;;5004398;28;20481;-79
2022/04/06 04:59:19;;;;;;;9.73;5.68;;;;;;;;;;5002886;28;20135;-79
2022/04/06 05:01:47;;;;;;;7.85;4.88;;;;;;;;;;5000921;28;20102;-79
2022/04/06 05:04:14;;;;;;;7.18;4.15;;;;;;;;;;5001356;28;20050;-79
2022/04/06 05:06:41;;;;;;;6.43;3.72;;;;;;;;;;5001936;28;20110;-79
2022/04/06 05:09:08;;;;;;;6.97;3.92;;;;;;;;;;5003792;28;20050;-80
2022/04/06 05:11:34;;;;;;;6.15;3.63;;;;;;;;;;5003868;28;20137;-79
2022/04/06 05:14:01;;;;;;;7.57;3.83;;;;;;;;;;5003949;28;20073;-80
2022/04/06 05:16:28;;;;;;;9.07;4.40;;;;;;;;;;5003321;28;20046;-80
2022/04/06 05:18:56;;;;;;;6.43;4.10;;;;;;;;;;5004805;28;20116;-79
2022/04/06 05:21:23;;;;;;;7.07;3.80;;;;;;;;;;5004553;28;20050;-79
2022/04/06 05:23:50;;;;;;;6.45;4.10;;;;;;;;;;5003588;28;20105;-79
2022/04/06 05:26:17;;;;;;;6.90;3.47;;;;;;;;;;5002214;28;20124;-79
2022/04/06 05:28:43;;;;;;;7.53;3.90;;;;;;;;;;5002414;28;20054;-80
2022/04/06 05:31:10;;;;;;;7.75;4.30;;;;;;;;;;5009450;28;20081;-78
2022/04/06 05:33:37;;;;;;;9.23;4.40;;;;;;;;;;5018232;28;20042;-78
2022/04/06 05:36:06;;;;;;;7.82;4.13;;;;;;;;;;5010306;28;20105;-79
2022/04/06 05:38:34;;;;;;;6.70;4.05;;;;;;;;;;5005091;28;20050;-79
2022/04/06 05:41:01;;;;;;;11.93;6.72;;;;;;;;;;5003219;28;20074;-78
2022/04/06 05:43:28;;;;;;;6.88;4.32;;;;;;;;;;5002475;28;20046;-78
2022/04/06 05:45:55;;;;;;;7.97;5.05;;;;;;;;;;5001867;28;20046;-78
2022/04/06 05:48:22;;;;;;;7.88;4.50;;;;;;;;;;5003565;28;20055;-78
2022/04/06 05:50:49;;;;;;;8.68;4.95;;;;;;;;;;5019806;28;20034;-79
2022/04/06 05:53:17;;;;;;;6.75;4.75;;;;;;;;;;5021738;28;20034;-79
2022/04/06 05:55:47;;;;;;;9.77;5.65;;;;;;;;;;5020922;28;20062;-79
2022/04/06 05:58:14;;;;;;;7.23;4.17;;;;;;;;;;5012116;28;20043;-80
2022/04/06 06:00:41;;;;;;;7.50;4.65;;;;;;;;;;5007814;28;20046;-80
2022/04/06 06:03:08;;;;;;;9.93;4.90;;;;;;;;;;5005812;28;20423;-79
2022/04/06 06:05:35;;;;;;;8.45;4.50;;;;;;;;;;5004738;28;20052;-80
2022/04/06 06:08:02;;;;;;;8.30;4.72;;;;;;;;;;5005629;28;20046;-80
2022/04/06 06:10:31;;;;;;;8.82;4.55;;;;;;;;;;5004073;28;20053;-80
2022/04/06 06:12:58;;;;;;;8.80;4.55;;;;;;;;;;5004285;28;20050;-79
2022/04/06 06:15:25;;;;;;;9.43;4.35;;;;;;;;;;5002113;28;20066;-80
2022/04/06 06:17:52;;;;;;;9.57;4.93;;;;;;;;;;5005848;28;20046;-79
2022/04/06 06:20:19;;;;;;;8.57;4.53;;;;;;;;;;5004193;28;20057;-79
2022/04/06 06:22:46;;;;;;;7.20;4.32;;;;;;;;;;5005649;28;20051;-81
2022/04/06 06:25:13;;;;;;;8.98;5.88;;;;;;;;;;5004203;28;20105;-79
2022/04/06 06:27:43;;;;;;;7.35;4.07;;;;;;;;;;5003384;28;20046;-79
2022/04/06 06:30:13;;;;;;;8.23;4.70;;;;;;;;;;5002600;28;20054;-79
2022/04/06 06:32:40;;;;;;;8.68;4.97;;;;;;;;;;5002651;28;20110;-79
2022/04/06 06:35:09;;;;;;;8.27;4.40;;;;;;;;;;5002299;28;20047;-79
2022/04/06 06:37:36;;;;;;;7.90;3.97;;;;;;;;;;5002021;28;20080;-79
2022/04/06 06:40:04;;;;;;;7.70;4.57;;;;;;;;;;5003733;28;20066;-79
2022/04/06 06:42:31;;;;;;;8.50;4.47;;;;;;;;;;5003703;28;20097;-79
2022/04/06 06:44:59;;;;;;;7.80;4.32;;;;;;;;;;5004061;28;20130;-80
2022/04/06 06:47:26;;;;;;;6.55;3.67;;;;;;;;;;5003922;28;20077;-80
2022/04/06 06:49:52;;;;;;;8.77;4.70;;;;;;;;;;5005179;28;20049;-79
2022/04/06 06:52:19;;;;;;;7.55;3.75;;;;;;;;;;5004337;28;20050;-79
2022/04/06 06:54:46;;;;;;;6.70;3.60;;;;;;;;;;5004686;28;20050;-79
2022/04/06 06:57:13;;;;;;;6.30;3.90;;;;;;;;;;5002694;28;20050;-81
2022/04/06 06:59:41;;;;;;;6.30;3.80;;;;;;;;;;5003147;28;20058;-77
2022/04/06 07:02:09;;;;;;;6.13;4.10;;;;;;;;;;5002712;28;20066;-77
2022/04/06 07:04:36;;;;;;;6.35;4.20;;;;;;;;;;5003239;28;20042;-79
2022/04/06 07:07:03;;;;;;;12.10;6.78;;;;;;;;;;5002453;28;20054;-78
2022/04/06 07:09:30;;;;;;;8.93;4.88;;;;;;;;;;5000725;28;20047;-78
2022/04/06 07:11:57;;;;;;;7.20;4.38;;;;;;;;;;5002002;28;20050;-78
2022/04/06 07:14:24;;;;;;;6.70;3.95;;;;;;;;;;5000436;28;20090;-79
2022/04/06 07:16:50;;;;;;;6.63;3.90;;;;;;;;;;4999681;28;20046;-80
2022/04/06 07:19:19;;;;;;;7.97;4.50;;;;;;;;;;5001626;28;20054;-80
2022/04/06 07:21:46;;;;;;;7.10;4.53;;;;;;;;;;5020472;23;20045;-65
2022/04/06 07:24:13;;;;;;;7.40;3.95;;;;;;;;;;4993930;28;20057;-63
2022/04/06 07:26:40;;;;;;;7.35;4.35;;;;;;;;;;4993945;28;20477;-65
2022/04/06 07:29:11;;;;;;;8.68;5.90;;;;;;;;;;4993791;28;20050;-64
2022/04/06 07:31:38;;;;;;;12.40;6.53;;;;;;;;;;4993512;28;20058;-64
2022/04/06 07:34:05;;;;;;;7.45;4.80;;;;;;;;;;4990165;28;20046;-65
2022/04/06 07:36:34;;;;;;;10.10;5.30;;;;;;;;;;4991216;28;20434;-65
2022/04/06 07:39:02;;;;;;;6.15;3.92;;;;;;;;;;4991734;28;20057;-65
2022/04/06 07:41:29;;;;;;;9.10;4.30;;;;;;;;;;4992169;28;20088;-65
2022/04/06 07:43:56;;;;;;;7.78;4.03;;;;;;;;;;4991866;28;20487;-62
2022/04/06 07:46:23;;;;;;;7.30;4.07;;;;;;;;;;5008432;28;20128;-64
2022/04/06 07:48:50;;;;;;;8.40;4.65;;;;;;;;;;5011003;28;20050;-64
2022/04/06 07:51:17;;;;;;;7.28;3.90;;;;;;;;;;5011238;28;20125;-65
2022/04/06 07:53:46;;;;;;;8.27;4.57;;;;;;;;;;5011012;28;20045;-63
2022/04/06 07:56:13;;;;;;;7.28;4.50;;;;;;;;;;5010965;28;20435;-64
2022/04/06 07:58:40;;;;;;;7.72;4.20;;;;;;;;;;5011229;28;20096;-63
2022/04/06 08:01:08;;;;;;;6.43;4.10;;;;;;;;;;5010754;28;20057;-64
2022/04/06 08:03:37;;;;;;;6.88;4.13;;;;;;;;;;5011193;28;20054;-64
2022/04/06 08:06:04;;;;;;;7.50;4.18;;;;;;;;;;5011021;28;20514;-64
2022/04/06 08:08:31;;;;;;;8.18;4.60;;;;;;;;;;5010404;28;20046;-64
2022/04/06 08:10:59;;;;;;;7.60;3.97;;;;;;;;;;5010782;28;20145;-64
2022/04/06 08:13:26;;;;;;;7.30;4.43;;;;;;;;;;5010610;28;20054;-64
2022/04/06 08:15:53;;;;;;;10.15;5.65;;;;;;;;;;5009966;28;20208;-64
2022/04/06 08:18:22;;;;;;;7.82;4.30;;;;;;;;;;5010737;28;20495;-64
2022/04/06 08:20:49;;;;;;;6.75;3.80;;;;;;;;;;5010380;28;20053;-64
2022/04/06 08:26:23;;;;;;;6.55;3.75;;;;;;;;;;5010100;28;20053;-65
2022/04/06 08:28:59;;;;;;;7.63;4.30;;;;;;;;;;5010323;28;20042;-65
2022/04/06 08:31:26;;;;;;;6.28;4.18;;;;;;;;;;5010389;28;20045;-65
2022/04/06 08:33:59;;;;;;;6.70;4.07;;;;;;;;;;5010315;28;20050;-65
2022/04/06 08:36:29;;;;;;;7.82;4.43;;;;;;;;;;5009777;28;20050;-64
2022/04/06 08:38:57;;;;;;;7.80;5.32;;;;;;;;;;5009951;28;20057;-64
2022/04/06 08:41:42;;;;;;;7.50;4.82;;;;;;;;;;5009908;28;20058;-64
2022/04/06 08:44:10;;;;;;;7.25;4.63;;;;;;;;;;5010270;28;20132;-63
2022/04/06 08:46:40;;;;;;;6.65;4.28;;;;;;;;;;4991265;28;20046;-65
2022/04/06 08:49:07;;;;;;;6.43;4.13;;;;;;;;;;4990399;28;20047;-64
2022/04/06 08:51:34;;;;;;;6.57;4.40;;;;;;;;;;4990533;28;20050;-64
2022/04/06 08:54:01;;;;;;;5.57;4.18;;;;;;;;;;4989998;28;20425;-64
2022/04/06 08:56:29;;;;;;;7.05;4.30;;;;;;;;;;4990385;28;20046;-66
2022/04/06 08:58:58;;;;;;;7.20;4.03;;;;;;;;;;4990556;28;20073;-65
2022/04/06 09:01:25;;;;;;;6.80;4.32;;;;;;;;;;4990337;28;20149;-65
2022/04/06 09:03:52;;;;;;;6.90;4.15;;;;;;;;;;4990933;28;20077;-64
2022/04/06 09:06:19;;;;;;;6.78;4.35;;;;;;;;;;4990138;28;20054;-65
2022/04/06 09:08:48;;;;;;;10.00;4.95;;;;;;;;;;4990269;28;20562;-65
2022/04/06 09:11:16;;;;;;;7.25;4.22;;;;;;;;;;4990068;28;20046;-64
2022/04/06 09:13:45;;;;;;;7.57;4.22;;;;;;;;;;4991020;28;20549;-64
2022/04/06 09:16:15;;;;;;;8.30;4.55;;;;;;;;;;4990620;28;20096;-64
2022/04/06 09:18:44;;;;;;;7.25;4.47;;;;;;;;;;4990851;28;20054;-65
2022/04/06 09:21:13;;;;;;;10.40;6.07;;;;;;;;;;4991005;28;20081;-66
2022/04/06 09:23:40;;;;;;;8.02;4.90;;;;;;;;;;4991331;28;20050;-65
2022/04/06 09:26:08;;;;;;;9.32;4.72;;;;;;;;;;4990480;28;20042;-64
2022/04/06 09:28:40;;;;;;;7.60;4.88;;;;;;;;;;4990395;28;20526;-64
2022/04/06 09:31:08;;;;;;;5.97;4.38;;;;;;;;;;4991270;28;20050;-65
2022/04/06 09:33:39;;;;;;;7.72;4.80;;;;;;;;;;4990578;28;20062;-64
2022/04/06 09:36:18;;;;;;;6.97;4.88;;;;;;;;;;4991182;28;20135;-65
2022/04/06 09:38:48;;;;;;;7.43;4.78;;;;;;;;;;4990976;28;20078;-65
2022/04/06 09:41:15;;;;;;;6.05;4.32;;;;;;;;;;4990786;28;20058;-65
2022/04/06 09:43:44;;;;;;;7.32;4.57;;;;;;;;;;4990844;28;20057;-64
2022/04/06 09:49:08;;;;;;;7.28;4.95;;;;;;;;;;5010149;28;20561;-65
2022/04/06 09:51:35;;;;;;;;;;;;;;;;;;4992261;28;20755;-64
2022/04/06 09:54:04;;;;;;;8.05;4.88;;;;;;;;;;4992646;28;19922;-63
2022/04/06 09:56:31;;;;;;;6.82;4.65;;;;;;;;;;4994147;28;20105;-65
2022/04/06 09:58:59;;;;;;;7.38;4.53;;;;;;;;;;4993839;28;20109;-65
2022/04/06 10:01:31;;;;;;;6.93;4.70;;;;;;;;;;4994215;28;20500;-66
2022/04/06 10:04:02;;;;;;;7.43;4.65;;;;;;;;;;4994302;28;20052;-65
2022/04/06 10:06:32;;;;;;;7.60;4.75;;;;;;;;;;4994081;28;20046;-65
2022/04/06 10:09:01;;;;;;;7.07;4.72;;;;;;;;;;4993674;28;20046;-65
2022/04/06 10:11:29;;;;;;;7.97;5.35;;;;;;;;;;4993828;28;20042;-65
2022/04/06 10:13:58;;;;;;;6.82;4.80;;;;;;;;;;4992042;28;20056;-64
2022/04/06 10:16:25;;;;;;;7.70;4.53;;;;;;;;;;4993981;28;20104;-64
2022/04/06 10:18:53;;;;;;;6.15;4.65;;;;;;;;;;4993421;28;20124;-64
2022/04/06 10:21:23;;;;;;;9.98;4.70;;;;;;;;;;4993973;28;20496;-64
2022/04/06 10:23:58;;;;;;;;;;;;;;;;;;4994380;28;20050;-65
2022/04/06 10:26:45;;;;;;;7.45;4.82;;;;;;;;;;4993446;28;19926;-65
2022/04/06 10:29:12;;;;;;;7.07;5.03;;;;;;;;;;4993751;28;20508;-65
2022/04/06 10:31:39;;;;;;;6.95;4.43;;;;;;;;;;4993854;28;20052;-65
2022/04/06 10:34:23;;;;;;;6.68;4.47;;;;;;;;;;4993770;28;20042;-65
2022/04/06 10:37:11;;;;;;;6.65;4.35;;;;;;;;;;4993512;28;20054;-65
2022/04/06 10:40:00;;;;;;;6.63;4.07;;;;;;;;;;4992566;28;20062;-65
2022/04/06 10:42:34;;;;;;;6.85;4.25;;;;;;;;;;4993181;28;20086;-64
2022/04/06 10:45:02;;;;;;;7.07;4.57;;;;;;;;;;4998427;28;20041;-65
2022/04/06 10:47:31;;;;;;;6.53;4.25;;;;;;;;;;5012972;28;20077;-65
2022/04/06 10:50:25;;;;;;;5.72;3.58;;;;;;;;;;5012165;28;20082;-65
2022/04/06 10:53:25;;;;;;;6.55;4.43;;;;;;;;;;4963798;28;20079;-64
2022/04/06 10:55:58;;;;;;;6.20;3.30;;;;;;;;;;4993334;28;20468;-65
2022/04/06 10:58:26;;;;;;;5.43;3.67;;;;;;;;;;4992861;28;20061;-65
2022/04/06 11:01:14;;;;;;;9.18;4.55;;;;;;;;;;4992585;28;20430;-65
2022/04/06 11:03:45;;;;;;;6.05;4.25;;;;;;;;;;4992877;28;20085;-65
2022/04/06 11:06:12;;;;;;;7.10;4.20;;;;;;;;;;4993062;28;20530;-65
2022/04/06 11:11:46;;;;;;;6.20;4.13;;;;;;;;;;4993290;28;20064;-66
2022/04/06 11:14:14;;;;;;;6.28;3.28;;;;;;;;;;4993506;28;20085;-65
2022/04/06 11:16:46;;;;;;;5.25;3.75;;;;;;;;;;4992587;28;20051;-65
2022/04/06 11:19:14;;;;;;;7.00;3.45;;;;;;;;;;4992315;28;20105;-65
2022/04/06 11:21:48;;;;;;;4.88;3.53;;;;;;;;;;4992050;28;20050;-69
2022/04/06 11:24:21;;;;;;;5.70;3.90;;;;;;;;;;4992481;28;20050;-67
2022/04/06 11:26:49;;;;;;;6.70;3.55;;;;;;;;;;4993025;28;20113;-66
2022/04/06 11:29:17;;;;;;;7.03;3.03;;;;;;;;;;4992941;28;20182;-63
2022/04/06 11:31:58;;;;;;;7.75;4.70;;;;;;;;;;4993124;28;20054;-66
2022/04/06 11:34:35;;;;;;;7.20;3.65;;;;;;;;;;4992528;28;20050;-64
2022/04/06 11:37:04;;;;;;;8.77;4.35;;;;;;;;;;4992920;28;20074;-64
2022/04/06 11:39:31;;;;;;;9.57;4.43;;;;;;;;;;4992244;28;20050;-63
2022/04/06 11:42:01;;;;;;;7.40;3.60;;;;;;;;;;4991819;28;20054;-64
2022/04/06 11:44:28;;;;;;;9.60;4.95;;;;;;;;;;4992101;28;20050;-64
2022/04/06 11:46:56;;;;;;;6.90;3.67;;;;;;;;;;4992151;28;20054;-64
2022/04/06 11:49:24;;;;;;;6.22;3.95;;;;;;;;;;4991899;28;20051;-64
2022/04/06 11:51:54;;;;;;;8.93;2.83;;;;;;;;;;4991667;28;20101;-63
2022/04/06 11:54:22;;;;;;;3.67;1.67;;;;;;;;;;4991730;28;20058;-64
2022/04/06 11:56:50;;;;;;;3.90;1.70;;;;;;;;;;4991780;28;20054;-64
2022/04/06 11:59:19;;;;;;;5.18;1.88;;;;;;;;;;4991951;28;20097;-64
2022/04/06 12:01:47;;;;;;;6.20;2.50;;;;;;;;;;4992112;28;20046;-63
2022/04/06 12:04:16;;;;;;;5.63;3.03;;;;;;;;;;4991739;28;20056;-65
2022/04/06 12:06:43;;;;;;;6.00;3.65;;;;;;;;;;4991849;28;20050;-64
2022/04/06 12:09:10;;;;;;;7.70;3.78;;;;;;;;;;4990031;28;20057;-64
2022/04/06 12:11:38;;;;;;;5.18;3.30;;;;;;;;;;4991729;28;20050;-63
2022/04/06 12:14:10;;;;;;;6.68;4.82;;;;;;;;;;4991490;28;20068;-64
2022/04/06 12:16:40;;;;;;;5.35;3.55;;;;;;;;;;4991570;28;20503;-64
2022/04/06 12:19:12;;;;;;;5.22;3.40;;;;;;;;;;4991693;28;20065;-64
2022/04/06 12:21:43;;;;;;;5.95;3.70;;;;;;;;;;4990838;28;20042;-64
2022/04/06 12:24:11;;;;;;;8.35;3.30;;;;;;;;;;4990138;28;20476;-65
2022/04/06 12:26:45;;;;;;;5.70;3.60;;;;;;;;;;4991344;28;20054;-64
2022/04/06 12:29:17;;;;;;;6.53;3.67;;;;;;;;;;4991653;28;20089;-62
2022/04/06 12:31:46;;;;;;;5.63;3.22;;;;;;;;;;4991819;28;20412;-64
2022/04/06 12:34:30;;;;;;;6.88;3.72;;;;;;;;;;4992089;28;20134;-65
2022/04/06 12:36:57;;;;;;;6.28;3.70;;;;;;;;;;4991375;28;20058;-64
2022/04/06 12:39:24;;;;;;;5.55;3.45;;;;;;;;;;4990847;28;20057;-64
2022/04/06 12:41:53;;;;;;;14.18;6.82;;;;;;;;;;4991499;28;20101;-63
2022/04/06 12:44:20;;;;;;;5.95;3.88;;;;;;;;;;4991362;28;20468;-63
2022/04/06 12:46:50;;;;;;;6.10;2.58;;;;;;;;;;4991267;28;20062;-63
2022/04/06 12:49:18;;;;;;;5.55;3.08;;;;;;;;;;4990948;28;20046;-63
2022/04/06 12:51:45;;;;;;;5.88;2.90;;;;;;;;;;4991145;28;20105;-64
2022/04/06 12:54:13;;;;;;;4.35;2.45;;;;;;;;;;4991044;28;20054;-64
2022/04/06 12:57:03;;;;;;;4.00;2.65;;;;;;;;;;4991150;28;20077;-64
2022/04/06 12:59:37;;;;;;;4.03;2.50;;;;;;;;;;4991041;28;20521;-64
2022/04/06 13:02:06;;;;;;;4.80;2.78;;;;;;;;;;4991631;28;20046;-64
2022/04/06 13:04:33;;;;;;;6.15;4.20;;;;;;;;;;4991640;28;20166;-64
2022/04/06 13:07:00;;;;;;;6.43;3.20;;;;;;;;;;4990920;28;20050;-64
2022/04/06 13:09:27;;;;;;;5.22;2.75;;;;;;;;;;4991241;28;20042;-64
2022/04/06 13:11:54;;;;;;;5.05;2.90;;;;;;;;;;4990547;28;20043;-63
2022/04/06 13:14:23;;;;;;;4.93;3.55;;;;;;;;;;4991453;28;20496;-64
2022/04/06 13:16:50;;;;;;;3.78;2.45;;;;;;;;;;4991246;28;20047;-63
2022/04/06 13:19:19;;;;;;;3.75;2.20;;;;;;;;;;4991102;28;20042;-65
2022/04/06 13:21:46;;;;;;;5.35;2.60;;;;;;;;;;4988868;28;20495;-63
2022/04/06 13:24:13;;;;;;;4.85;1.70;;;;;;;;;;4990747;28;20129;-64
2022/04/06 13:26:40;;;;;;;3.38;1.77;;;;;;;;;;4991421;28;20423;-63
2022/04/06 13:29:08;;;;;;;4.25;2.40;;;;;;;;;;4992923;28;20463;-63
2022/04/06 13:31:39;;;;;;;4.85;2.53;;;;;;;;;;4995282;28;20054;-63
2022/04/06 13:34:06;;;;;;;4.03;2.80;;;;;;;;;;4994979;28;20146;-66
2022/04/06 13:36:35;;;;;;;4.97;2.55;;;;;;;;;;4994323;28;20046;-63
2022/04/06 13:39:02;;;;;;;4.82;3.42;;;;;;;;;;4994908;28;20057;-64
2022/04/06 13:41:29;;;;;;;3.67;2.30;;;;;;;;;;4994886;28;20629;-64
2022/04/06 13:43:56;;;;;;;4.80;2.00;;;;;;;;;;5013910;23;20512;-81
2022/04/06 13:46:22;;;;;;;3.53;2.20;;;;;;;;;;5001813;28;20552;-80
2022/04/06 13:48:49;;;;;;;5.82;2.60;;;;;;;;;;5001339;28;20046;-81
2022/04/06 13:51:17;;;;;;;5.65;2.80;;;;;;;;;;5000938;28;20129;-81
2022/04/06 13:53:45;;;;;;;3.55;2.20;;;;;;;;;;5000662;28;20054;-81
2022/04/06 13:56:12;;;;;;;3.50;2.10;;;;;;;;;;5000293;28;20066;-81
2022/04/06 13:58:39;;;;;;;4.07;2.25;;;;;;;;;;4999413;28;20484;-79
2022/04/06 14:01:05;;;;;;;4.03;2.20;;;;;;;;;;5002675;28;20054;-81
2022/04/06 14:03:33;;;;;;;2.80;1.77;;;;;;;;;;5004725;28;20050;-81
2022/04/06 14:06:00;;;;;;;4.38;2.00;;;;;;;;;;5004715;28;20484;-81
2022/04/06 14:08:27;;;;;;;3.85;1.65;;;;;;;;;;5002193;28;20047;-82
2022/04/06 14:10:55;;;;;;;4.30;2.10;;;;;;;;;;5001054;28;20055;-79
2022/04/06 14:13:22;;;;;;;4.95;2.17;;;;;;;;;;5000788;28;20129;-81
2022/04/06 14:15:49;;;;;;;2.75;1.55;;;;;;;;;;5002747;28;20097;-81
2022/04/06 14:18:18;;;;;;;3.55;1.90;;;;;;;;;;5002474;28;20563;-81
2022/04/06 14:20:45;;;;;;;3.20;1.90;;;;;;;;;;5001905;28;20069;-81
2022/04/06 14:23:11;;;;;;;3.67;2.08;;;;;;;;;;5001706;28;20047;-79
2022/04/06 14:25:38;;;;;;;3.10;1.73;;;;;;;;;;5001165;28;20078;-81
2022/04/06 14:28:07;;;;;;;2.83;1.58;;;;;;;;;;4998641;28;20066;-80
2022/04/06 14:30:34;;;;;;;3.30;1.77;;;;;;;;;;4995909;28;20120;-81
2022/04/06 14:33:00;;;;;;;3.85;1.80;;;;;;;;;;4995126;28;20588;-80
2022/04/06 14:35:27;;;;;;;5.65;2.17;;;;;;;;;;4995469;28;20121;-80
2022/04/06 14:37:54;;;;;;;3.38;2.13;;;;;;;;;;4995715;28;20069;-80
2022/04/06 14:40:21;;;;;;;2.60;1.60;;;;;;;;;;4994998;28;20062;-80
2022/04/06 14:42:48;;;;;;;3.42;1.60;;;;;;;;;;4995231;28;20050;-80
2022/04/06 14:45:18;;;;;;;4.70;1.95;;;;;;;;;;4995405;28;20073;-80
2022/04/06 14:47:46;;;;;;;3.30;2.10;;;;;;;;;;4996398;28;20050;-81
2022/04/06 14:50:13;;;;;;;2.95;1.80;;;;;;;;;;4996484;28;20304;-79
2022/04/06 14:52:39;;;;;;;3.97;2.10;;;;;;;;;;4995980;28;20038;-81
2022/04/06 14:55:08;;;;;;;3.33;1.80;;;;;;;;;;4995479;28;20046;-79
2022/04/06 14:57:35;;;;;;;6.40;1.98;;;;;;;;;;4995004;28;20050;-79
2022/04/06 15:00:03;;;;;;;4.57;2.30;;;;;;;;;;4995407;28;20054;-79
2022/04/06 15:02:31;;;;;;;2.50;1.40;;;;;;;;;;4996049;28;20141;-79